createdAt,value
2019-05-21T00:01:53.042Z,22.27
2019-05-21T00:04:28.286Z,25.97
2019-05-21T00:06:52.848Z,23.57
2019-05-21T00:09:21.895Z,24.60
2019-05-21T00:11:50.965Z,34.53
2019-05-21T00:14:20.043Z,35.70
2019-05-21T00:16:49.170Z,42.07
2019-05-21T00:19:18.238Z,42.77
2019-05-21T00:21:47.412Z,48.20
2019-05-21T00:24:16.486Z,46.13
2019-05-21T00:26:45.616Z,42.63
2019-05-21T00:29:50.407Z,37.70
2019-05-21T00:32:55.868Z,28.77
2019-05-21T00:36:01.068Z,24.70
2019-05-21T00:39:06.169Z,21.87
2019-05-21T00:42:02.230Z,21.67
2019-05-21T00:44:35.718Z,22.60
2019-05-21T00:47:05.241Z,24.83
2019-05-21T00:49:34.378Z,21.60
2019-05-21T00:52:08.824Z,25.73
2019-05-21T00:54:34.377Z,27.83
2019-05-21T00:57:03.493Z,30.10
2019-05-21T00:59:32.575Z,34.07
2019-05-21T01:02:01.693Z,34.33
2019-05-21T01:04:30.731Z,33.53
2019-05-21T01:06:59.830Z,34.30
2019-05-21T01:09:28.895Z,32.13
2019-05-21T01:11:57.952Z,30.37
2019-05-21T01:14:46.207Z,28.63
2019-05-21T01:17:15.351Z,27.90
2019-05-21T01:19:44.532Z,25.13
2019-05-21T01:22:13.751Z,19.93
2019-05-21T01:24:42.780Z,18.97
2019-05-21T01:27:11.841Z,15.93
2019-05-21T01:29:40.913Z,16.77
2019-05-21T01:32:09.986Z,15.43
2019-05-21T01:34:39.065Z,15.53
2019-05-21T01:37:08.188Z,14.97
2019-05-21T01:39:37.300Z,15.80
2019-05-21T01:42:06.360Z,15.23
2019-05-21T01:44:35.414Z,14.27
2019-05-21T01:47:04.486Z,13.27
2019-05-21T01:49:33.567Z,12.57
2019-05-21T01:52:02.739Z,13.20
2019-05-21T01:54:31.864Z,14.57
2019-05-21T01:57:01.005Z,13.30
2019-05-21T01:59:30.131Z,13.87
2019-05-21T02:01:59.212Z,16.17
2019-05-21T02:04:28.364Z,18.37
2019-05-21T02:06:57.487Z,13.37
2019-05-21T02:09:26.545Z,14.53
2019-05-21T02:11:55.578Z,16.67
2019-05-21T02:14:24.670Z,16.33
2019-05-21T02:16:53.679Z,17.13
2019-05-21T02:19:22.866Z,17.67
2019-05-21T02:21:51.925Z,18.53
2019-05-21T02:24:20.982Z,20.63
2019-05-21T02:26:50.019Z,21.90
2019-05-21T02:29:19.067Z,21.50
2019-05-21T02:31:48.106Z,25.87
2019-05-21T02:34:17.285Z,24.97
2019-05-21T02:36:46.339Z,26.50
2019-05-21T02:39:15.391Z,23.33
2019-05-21T02:41:44.414Z,25.93
2019-05-21T02:44:13.516Z,25.30
2019-05-21T02:46:42.611Z,29.17
2019-05-21T02:49:11.701Z,27.93
2019-05-21T02:51:40.762Z,27.23
2019-05-21T02:54:09.866Z,27.93
2019-05-21T02:56:38.989Z,28.30
2019-05-21T02:59:08.060Z,29.37
2019-05-21T03:01:43.238Z,31.67
2019-05-21T03:04:12.387Z,30.03
2019-05-21T03:06:41.498Z,26.37
2019-05-21T03:09:10.583Z,27.70
2019-05-21T03:11:39.671Z,28.23
2019-05-21T03:14:08.764Z,32.53
2019-05-21T03:16:37.861Z,33.17
2019-05-21T03:19:06.894Z,30.03
2019-05-21T03:21:35.945Z,35.27
2019-05-21T03:24:05.024Z,34.30
2019-05-21T03:26:34.268Z,36.03
2019-05-21T03:29:03.331Z,34.37
2019-05-21T03:31:32.538Z,38.67
2019-05-21T03:34:01.601Z,40.20
2019-05-21T03:36:33.929Z,41.43
2019-05-21T03:39:01.429Z,44.30
2019-05-21T03:41:30.541Z,43.03
2019-05-21T03:43:59.633Z,49.13
2019-05-21T03:46:28.667Z,48.00
2019-05-21T03:48:57.753Z,45.10
2019-05-21T03:51:26.957Z,45.67
2019-05-21T03:53:56.024Z,45.70
2019-05-21T03:56:25.185Z,48.10
2019-05-21T03:58:54.223Z,46.53
2019-05-21T04:01:23.395Z,48.93
2019-05-21T04:03:52.485Z,52.97
2019-05-21T04:06:21.795Z,51.13
2019-05-21T04:08:50.877Z,54.17
2019-05-21T04:11:19.980Z,57.83
2019-05-21T04:13:49.196Z,59.53
2019-05-21T04:16:25.147Z,66.47
2019-05-21T04:19:06.888Z,68.03
2019-05-21T04:21:36.018Z,66.97
2019-05-21T04:24:08.671Z,66.77
2019-05-21T04:26:36.022Z,68.43
2019-05-21T04:29:05.095Z,71.43
2019-05-21T04:31:34.217Z,67.57
2019-05-21T04:34:03.431Z,74.67
2019-05-21T04:36:32.491Z,73.77
2019-05-21T04:39:01.575Z,72.23
2019-05-21T04:41:30.807Z,79.67
2019-05-21T04:43:59.878Z,75.93
2019-05-21T04:46:28.935Z,84.53
2019-05-21T04:48:58.307Z,85.83
2019-05-21T04:51:27.396Z,91.20
2019-05-21T04:53:56.538Z,96.47
2019-05-21T04:56:28.756Z,86.30
2019-05-21T04:58:57.861Z,86.00
2019-05-21T05:01:27.088Z,90.10
2019-05-21T05:03:56.267Z,93.03
2019-05-21T05:06:25.355Z,89.03
2019-05-21T05:08:54.494Z,93.13
2019-05-21T05:11:23.634Z,87.77
2019-05-21T05:13:52.909Z,94.23
2019-05-21T05:16:21.943Z,94.00
2019-05-21T05:18:51.139Z,93.97
2019-05-21T05:21:20.240Z,92.13
2019-05-21T05:23:49.317Z,93.23
2019-05-21T05:26:18.438Z,100.07
2019-05-21T05:28:47.566Z,89.17
2019-05-21T05:31:17.172Z,89.83
2019-05-21T05:33:46.255Z,89.87
2019-05-21T05:36:15.362Z,89.63
2019-05-21T05:38:44.526Z,86.33
2019-05-21T05:41:13.702Z,81.07
2019-05-21T05:43:42.869Z,81.20
2019-05-21T05:46:11.965Z,77.60
2019-05-21T05:48:51.115Z,81.13
2019-05-21T05:51:20.285Z,70.30
2019-05-21T05:53:58.867Z,64.60
2019-05-21T05:56:29.015Z,71.30
2019-05-21T05:58:58.067Z,62.33
2019-05-21T06:01:28.463Z,59.60
2019-05-21T06:03:57.636Z,58.90
2019-05-21T06:06:26.747Z,57.83
2019-05-21T06:08:55.805Z,59.10
2019-05-21T06:11:28.214Z,59.03
2019-05-21T06:13:57.356Z,55.40
2019-05-21T06:16:26.507Z,47.50
2019-05-21T06:18:55.557Z,44.57
2019-05-21T06:21:24.717Z,47.90
2019-05-21T06:23:53.813Z,45.33
2019-05-21T06:26:22.867Z,48.00
2019-05-21T06:28:51.994Z,43.30
2019-05-21T06:31:21.157Z,48.43
2019-05-21T06:33:50.264Z,44.17
2019-05-21T06:36:19.437Z,42.23
2019-05-21T06:38:48.543Z,41.40
2019-05-21T06:41:17.608Z,39.00
2019-05-21T06:43:46.721Z,38.17
2019-05-21T06:46:15.861Z,39.63
2019-05-21T06:48:45.022Z,38.87
2019-05-21T06:51:14.220Z,38.37
2019-05-21T06:53:43.319Z,41.57
2019-05-21T06:56:12.447Z,43.63
2019-05-21T06:58:41.639Z,44.60
2019-05-21T07:01:10.798Z,48.00
2019-05-21T07:03:39.914Z,51.17
2019-05-21T07:06:09.131Z,49.80
2019-05-21T07:08:38.201Z,55.40
2019-05-21T07:11:07.669Z,56.80
2019-05-21T07:13:36.972Z,59.73
2019-05-21T07:16:07.018Z,57.53
2019-05-21T07:18:36.375Z,54.17
2019-05-21T07:21:06.091Z,54.47
2019-05-21T07:23:36.309Z,52.87
2019-05-21T07:26:05.607Z,51.37
2019-05-21T07:28:34.754Z,48.53
2019-05-21T07:31:04.304Z,51.23
2019-05-21T07:33:33.487Z,51.17
2019-05-21T07:36:13.881Z,53.67
2019-05-21T07:38:53.086Z,57.93
2019-05-21T07:41:20.184Z,56.47
2019-05-21T07:43:49.387Z,60.53
2019-05-21T07:46:18.915Z,62.20
2019-05-21T07:48:52.272Z,57.73
2019-05-21T07:51:28.233Z,65.07
2019-05-21T07:54:00.994Z,68.50
2019-05-21T07:56:30.452Z,64.33
2019-05-21T07:58:59.807Z,60.57
2019-05-21T08:01:39.918Z,66.53
2019-05-21T08:04:09.801Z,65.97
2019-05-21T08:06:40.370Z,70.37
2019-05-21T08:09:15.042Z,65.40
2019-05-21T08:11:47.441Z,63.13
2019-05-21T08:14:17.182Z,56.37
2019-05-21T08:16:46.406Z,61.40
2019-05-21T08:19:16.038Z,57.10
2019-05-21T08:21:45.371Z,55.90
2019-05-21T08:24:17.738Z,57.80
2019-05-21T08:27:07.023Z,58.63
2019-05-21T08:29:43.324Z,57.70
2019-05-21T08:32:28.698Z,56.97
2019-05-21T08:38:25.845Z,57.03
2019-05-21T08:40:57.271Z,51.73
2019-05-21T08:43:37.840Z,52.40
2019-05-21T08:46:14.336Z,41.70
2019-05-21T08:48:49.257Z,44.63
2019-05-21T08:51:18.907Z,46.10
2019-05-21T08:53:48.678Z,40.90
2019-05-21T08:56:23.795Z,43.20
2019-05-21T08:58:56.274Z,41.80
2019-05-21T09:01:33.311Z,40.90
2019-05-21T09:04:02.776Z,36.90
2019-05-21T09:06:32.226Z,36.50
2019-05-21T09:09:03.673Z,37.30
2019-05-21T09:11:41.323Z,39.93
2019-05-21T09:14:14.139Z,37.23
2019-05-21T09:16:43.956Z,40.43
2019-05-21T09:19:16.239Z,41.17
2019-05-21T09:21:47.738Z,39.83
2019-05-21T09:24:21.027Z,34.43
2019-05-21T09:26:53.785Z,36.30
2019-05-21T09:29:30.277Z,38.50
2019-05-21T09:32:04.715Z,34.93
2019-05-21T09:34:49.388Z,30.83
2019-05-21T09:37:43.080Z,31.33
2019-05-21T09:40:14.918Z,29.47
2019-05-21T09:42:45.617Z,31.23
2019-05-21T09:45:22.186Z,25.77
2019-05-21T09:48:00.868Z,26.07
2019-05-21T09:50:44.256Z,21.10
2019-05-21T09:53:17.363Z,22.23
2019-05-21T09:56:26.133Z,21.57
2019-05-21T09:59:02.603Z,17.23
2019-05-21T10:01:41.503Z,17.97
2019-05-21T10:04:11.915Z,18.90
2019-05-21T10:06:59.440Z,17.30
2019-05-21T10:09:32.602Z,18.07
2019-05-21T10:12:46.789Z,18.00
2019-05-21T10:15:20.696Z,16.53
2019-05-21T10:18:02.868Z,17.27
2019-05-21T10:20:35.777Z,19.80
2019-05-21T10:23:12.021Z,21.83
2019-05-21T10:25:47.913Z,20.83
2019-05-21T10:28:26.474Z,18.37
2019-05-21T10:30:56.700Z,22.23
2019-05-21T10:33:27.637Z,23.97
2019-05-21T10:35:59.472Z,24.77
2019-05-21T10:38:30.276Z,24.43
2019-05-21T10:41:00.675Z,24.03
2019-05-21T10:43:41.338Z,26.30
2019-05-21T10:46:19.834Z,25.13
2019-05-21T10:48:49.284Z,31.23
2019-05-21T10:51:19.082Z,27.03
2019-05-21T10:53:49.702Z,25.13
2019-05-21T10:56:21.928Z,29.00
2019-05-21T10:58:51.841Z,26.03
2019-05-21T11:01:34.634Z,31.13
2019-05-21T11:04:29.806Z,26.70
2019-05-21T11:07:01.525Z,28.90
2019-05-21T11:09:30.820Z,30.13
2019-05-21T11:12:00.020Z,32.77
2019-05-21T11:14:29.254Z,31.37
2019-05-21T11:17:01.427Z,28.97
2019-05-21T11:19:30.549Z,28.47
2019-05-21T11:21:59.737Z,26.23
2019-05-21T11:24:29.312Z,26.57
2019-05-21T11:27:08.433Z,25.97
2019-05-21T11:29:41.165Z,28.80
2019-05-21T11:32:20.145Z,28.00
2019-05-21T11:34:58.066Z,29.73
2019-05-21T11:37:31.855Z,29.70
2019-05-21T11:40:29.623Z,30.50
2019-05-21T11:43:42.095Z,29.57
2019-05-21T11:46:11.957Z,28.53
2019-05-21T11:48:53.533Z,31.07
2019-05-21T11:51:25.021Z,29.30
2019-05-21T11:54:20.213Z,27.40
2019-05-21T11:56:55.454Z,30.40
2019-05-21T11:59:24.558Z,29.63
2019-05-21T12:01:53.650Z,27.93
2019-05-21T12:04:22.967Z,31.67
2019-05-21T12:06:52.039Z,28.77
2019-05-21T12:09:21.461Z,26.53
2019-05-21T12:11:50.678Z,24.90
2019-05-21T12:14:37.375Z,28.67
2019-05-21T12:17:24.363Z,25.57
2019-05-21T12:20:00.218Z,27.13
2019-05-21T12:24:05.734Z,26.13
2019-05-21T12:26:16.332Z,28.17
2019-05-21T12:29:24.550Z,26.50
2019-05-21T12:32:20.661Z,31.17
2019-05-21T12:34:50.772Z,27.73
2019-05-21T12:37:20.158Z,28.23
2019-05-21T12:40:16.918Z,26.93
2019-05-21T12:42:53.221Z,26.70
2019-05-21T12:45:19.452Z,31.37
2019-05-21T12:47:50.745Z,33.07
2019-05-21T12:50:19.761Z,35.43
2019-05-21T12:52:54.950Z,41.67
2019-05-21T12:55:25.131Z,36.63
2019-05-21T12:57:54.291Z,42.20
2019-05-21T13:00:28.571Z,33.83
2019-05-21T13:03:05.444Z,35.77
2019-05-21T13:05:43.014Z,36.50
2019-05-21T13:08:12.358Z,37.07
2019-05-21T13:10:41.750Z,35.70
2019-05-21T13:13:15.986Z,41.77
2019-05-21T13:15:45.727Z,38.03
2019-05-21T13:18:25.610Z,36.90
2019-05-21T13:20:54.968Z,34.00
2019-05-21T13:23:26.544Z,34.70
2019-05-21T13:25:57.244Z,34.23
2019-05-21T13:28:30.053Z,31.90
2019-05-21T13:30:59.670Z,36.33
2019-05-21T13:33:29.144Z,32.67
2019-05-21T13:35:58.808Z,37.63
2019-05-21T13:38:28.266Z,38.57
2019-05-21T13:40:57.771Z,43.77
2019-05-21T13:43:27.432Z,42.77
2019-05-21T13:46:02.901Z,40.77
2019-05-21T13:48:47.030Z,40.33
2019-05-21T13:51:31.483Z,42.10
2019-05-21T13:54:01.375Z,34.63
2019-05-21T13:56:30.689Z,38.53
2019-05-21T13:58:59.869Z,35.97
2019-05-21T14:01:40.283Z,38.87
2019-05-21T14:04:00.399Z,34.90
2019-05-21T14:06:29.655Z,37.67
2019-05-21T14:08:58.782Z,40.43
2019-05-21T14:11:28.471Z,43.37
2019-05-21T14:13:57.605Z,50.03
2019-05-21T14:16:27.015Z,46.53
2019-05-21T14:19:00.848Z,51.40
2019-05-21T14:21:31.811Z,45.17
2019-05-21T14:24:01.330Z,44.53
2019-05-21T14:26:32.466Z,41.60
2019-05-21T14:29:02.973Z,41.60
2019-05-21T14:31:32.356Z,40.00
2019-05-21T14:34:01.539Z,40.83
2019-05-21T14:36:33.286Z,44.73
2019-05-21T14:39:06.235Z,43.07
2019-05-21T14:41:33.392Z,38.50
2019-05-21T14:44:02.913Z,36.60
2019-05-21T14:46:32.122Z,37.13
2019-05-21T14:49:01.413Z,36.87
2019-05-21T14:51:30.531Z,37.43
2019-05-21T14:54:03.743Z,38.20
2019-05-21T14:56:33.020Z,36.30
2019-05-21T14:59:02.335Z,40.27
2019-05-21T15:01:31.584Z,41.47
2019-05-21T15:04:01.108Z,36.47
2019-05-21T15:06:31.641Z,35.30
2019-05-21T15:09:01.076Z,34.07
2019-05-21T15:11:30.173Z,41.97
2019-05-21T15:13:59.591Z,37.00
2019-05-21T15:16:28.720Z,40.97
2019-05-21T15:18:57.882Z,41.60
2019-05-21T15:21:31.503Z,43.13
2019-05-21T15:24:17.640Z,39.83
2019-05-21T15:26:46.773Z,40.03
2019-05-21T15:29:15.950Z,36.33
2019-05-21T15:31:45.086Z,35.97
2019-05-21T15:34:14.525Z,36.97
2019-05-21T15:36:43.707Z,32.57
2019-05-21T15:39:12.882Z,34.47
2019-05-21T15:41:42.101Z,36.80
2019-05-21T15:44:11.319Z,35.10
2019-05-21T15:46:48.115Z,33.63
2019-05-21T15:49:11.305Z,34.23
2019-05-21T15:51:40.709Z,35.03
2019-05-21T15:54:09.948Z,27.40
2019-05-21T15:56:39.186Z,26.63
2019-05-21T15:59:08.294Z,27.10
2019-05-21T16:01:40.563Z,27.13
2019-05-21T16:04:08.267Z,27.00
2019-05-21T16:06:37.424Z,27.47
2019-05-21T16:09:09.212Z,29.43
2019-05-21T16:11:38.333Z,29.00
2019-05-21T16:14:07.450Z,26.43
2019-05-21T16:16:36.853Z,28.10
2019-05-21T16:19:06.303Z,23.70
2019-05-21T16:25:08.846Z,22.17
2019-05-21T16:27:42.870Z,24.63
2019-05-21T16:30:12.185Z,23.57
2019-05-21T16:32:44.199Z,27.90
2019-05-21T16:35:13.671Z,28.63
2019-05-21T16:37:45.221Z,29.10
2019-05-21T16:40:14.822Z,34.47
2019-05-21T16:42:44.135Z,32.97
2019-05-21T16:45:15.113Z,34.07
2019-05-21T16:47:51.910Z,40.77
2019-05-21T16:50:24.048Z,31.03
2019-05-21T16:52:53.576Z,30.37
2019-05-21T16:55:23.271Z,31.17
2019-05-21T16:57:57.908Z,29.90
2019-05-21T17:00:30.243Z,32.13
2019-05-21T17:03:12.253Z,29.40
2019-05-21T17:05:54.066Z,28.47
2019-05-21T17:08:35.756Z,28.90
2019-05-21T17:11:14.543Z,31.80
2019-05-21T17:16:38.338Z,30.70
2019-05-21T17:19:21.025Z,28.83
2019-05-21T17:21:51.232Z,29.40
2019-05-21T17:24:28.070Z,31.90
2019-05-21T17:27:11.493Z,30.90
2019-05-21T17:29:44.079Z,31.00
2019-05-21T17:32:27.505Z,30.77
2019-05-21T17:34:59.230Z,30.90
2019-05-21T17:37:36.639Z,32.87
2019-05-21T17:40:24.127Z,33.13
2019-05-21T17:42:51.461Z,34.60
2019-05-21T17:45:43.132Z,39.30
2019-05-21T17:51:26.803Z,58.47
2019-05-21T17:53:56.397Z,44.40
2019-05-21T17:56:29.283Z,31.33
2019-05-21T17:59:01.291Z,31.50
2019-05-21T18:01:33.367Z,36.60
2019-05-21T18:04:02.998Z,39.50
2019-05-21T18:06:33.068Z,37.57
2019-05-21T18:09:14.709Z,37.27
2019-05-21T18:11:47.047Z,41.33
2019-05-21T18:14:17.827Z,37.83
2019-05-21T18:16:47.496Z,37.80
2019-05-21T18:19:17.011Z,35.53
2019-05-21T18:21:46.819Z,32.63
2019-05-21T18:24:16.540Z,35.17
2019-05-21T18:26:46.533Z,39.27
2019-05-21T18:29:16.262Z,35.47
2019-05-21T18:31:46.166Z,32.60
2019-05-21T18:34:17.751Z,34.20
2019-05-21T18:36:47.335Z,28.13
2019-05-21T18:39:17.788Z,31.50
2019-05-21T18:41:49.308Z,28.43
2019-05-21T18:44:22.892Z,27.33
2019-05-21T18:46:54.179Z,28.67
2019-05-21T18:49:23.980Z,29.63
2019-05-21T18:51:57.670Z,31.33
2019-05-21T18:54:27.727Z,31.07
2019-05-21T18:56:58.339Z,34.40
2019-05-21T18:59:27.939Z,35.70
2019-05-21T19:01:57.956Z,34.73
2019-05-21T19:04:30.436Z,41.43
2019-05-21T19:07:00.001Z,40.73
2019-05-21T19:09:32.938Z,39.17
2019-05-21T19:12:02.649Z,42.43
2019-05-21T19:14:32.176Z,43.17
2019-05-21T19:17:01.572Z,40.93
2019-05-21T19:19:33.573Z,39.80
2019-05-21T19:22:03.142Z,41.00
2019-05-21T19:24:36.002Z,43.23
2019-05-21T19:27:12.863Z,41.43
2019-05-21T19:29:58.368Z,40.03
2019-05-21T19:32:45.979Z,40.83
2019-05-21T19:35:27.564Z,37.77
2019-05-21T19:38:00.316Z,37.33
2019-05-21T19:40:31.567Z,38.20
2019-05-21T19:43:01.913Z,39.57
2019-05-21T19:45:34.862Z,35.67
2019-05-21T19:48:29.135Z,38.93
2019-05-21T19:51:00.590Z,39.03
2019-05-21T19:53:33.341Z,48.17
2019-05-21T19:56:05.851Z,39.50
2019-05-21T19:58:35.345Z,42.03
2019-05-21T20:01:08.097Z,39.57
2019-05-21T20:03:37.660Z,38.73
2019-05-21T20:06:07.842Z,39.57
2019-05-21T20:08:41.027Z,42.50
2019-05-21T20:11:11.483Z,46.90
2019-05-21T20:13:40.706Z,40.33
2019-05-21T20:16:10.873Z,41.27
2019-05-21T20:18:40.096Z,36.70
2019-05-21T20:21:09.617Z,41.73
2019-05-21T20:23:38.884Z,36.10
2019-05-21T20:26:10.125Z,42.57
2019-05-21T20:28:39.327Z,45.53
2019-05-21T20:31:08.663Z,41.73
2019-05-21T20:33:37.827Z,42.33
2019-05-21T20:36:10.905Z,40.47
2019-05-21T20:38:40.045Z,42.67
2019-05-21T20:41:09.199Z,37.63
2019-05-21T20:43:38.436Z,36.30
2019-05-21T20:46:08.052Z,37.47
2019-05-21T20:48:37.552Z,36.90
2019-05-21T20:51:07.519Z,33.87
2019-05-21T20:53:36.765Z,34.90
2019-05-21T20:56:07.226Z,31.10
2019-05-21T20:58:39.482Z,35.00
2019-05-21T21:01:09.060Z,36.03
2019-05-21T21:03:38.312Z,36.40
2019-05-21T21:06:07.488Z,36.57
2019-05-21T21:08:37.683Z,41.33
2019-05-21T21:11:09.218Z,37.30
2019-05-21T21:13:39.176Z,39.27
2019-05-21T21:16:08.334Z,37.00
2019-05-21T21:18:37.661Z,33.93
2019-05-21T21:21:06.838Z,29.53
2019-05-21T21:23:36.547Z,27.93
2019-05-21T21:26:05.881Z,28.20
2019-05-21T21:28:34.926Z,27.03
2019-05-21T21:31:04.590Z,24.90
2019-05-21T21:33:33.971Z,26.83
2019-05-21T21:36:03.318Z,26.73
2019-05-21T21:38:34.400Z,26.07
2019-05-21T21:41:03.562Z,27.27
2019-05-21T21:43:32.652Z,25.80
2019-05-21T21:46:01.821Z,21.33
2019-05-21T21:48:31.003Z,21.87
2019-05-21T21:51:01.032Z,24.63
2019-05-21T21:53:30.396Z,23.37
2019-05-21T21:55:59.693Z,21.87
2019-05-21T21:58:28.848Z,29.90
2019-05-21T22:01:46.274Z,35.13
2019-05-21T22:04:16.518Z,38.23
2019-05-21T22:06:45.935Z,38.10
2019-05-21T22:09:32.039Z,37.10
2019-05-21T22:12:02.506Z,40.63
2019-05-21T22:14:32.726Z,42.67
2019-05-21T22:17:02.206Z,42.23
2019-05-21T22:19:31.961Z,42.03
2019-05-21T22:22:01.096Z,42.77
2019-05-21T22:24:30.523Z,45.60
2019-05-21T22:26:59.659Z,41.47
2019-05-21T22:29:29.089Z,43.90
2019-05-21T22:31:58.256Z,44.93
2019-05-21T22:34:27.993Z,37.87
2019-05-21T22:36:57.058Z,41.43
2019-05-21T22:39:28.281Z,44.50
2019-05-21T22:41:57.381Z,52.97
2019-05-21T22:44:26.494Z,47.90
2019-05-21T22:46:55.720Z,45.63
2019-05-21T22:49:24.810Z,48.80
2019-05-21T22:51:54.299Z,44.60
2019-05-21T22:54:23.957Z,41.00
2019-05-21T22:56:53.029Z,40.93
2019-05-21T22:59:22.377Z,42.60
2019-05-21T23:01:53.121Z,37.83
2019-05-21T23:04:22.205Z,41.00
2019-05-21T23:06:52.240Z,39.37
2019-05-21T23:09:21.314Z,41.33
2019-05-21T23:11:50.392Z,42.70
2019-05-21T23:14:19.462Z,45.10
2019-05-21T23:16:48.769Z,49.10
2019-05-21T23:19:18.853Z,50.43
2019-05-21T23:21:49.662Z,48.53
2019-05-21T23:24:21.409Z,45.90
2019-05-21T23:26:50.552Z,46.93
2019-05-21T23:29:19.620Z,47.77
2019-05-21T23:31:48.690Z,51.03
2019-05-21T23:34:18.986Z,53.40
2019-05-21T23:36:48.531Z,49.87
2019-05-21T23:39:22.224Z,53.03
2019-05-21T23:41:51.315Z,57.37
2019-05-21T23:44:20.694Z,53.53
2019-05-21T23:46:49.772Z,53.00
2019-05-21T23:49:18.842Z,53.40
2019-05-21T23:51:47.913Z,49.23
2019-05-21T23:54:17.153Z,52.40
2019-05-21T23:56:47.013Z,51.77
2019-05-21T23:59:16.249Z,49.93
